sensor_id;sensor_type;location;lat;lon;timestamp;P1;durP1;ratioP1;P2;durP2;ratioP2
40753;SDS011;26460;42.732;-84.532;2024-01-30T00:00:27;4.28;;;2.10;;
40753;SDS011;26460;42.732;-84.532;2024-01-30T00:02:53;3.55;;;2.10;;
40753;SDS011;26460;42.732;-84.532;2024-01-30T00:05:20;2.63;;;2.35;;
40753;SDS011;26460;42.732;-84.532;2024-01-30T00:07:46;2.33;;;2.08;;
40753;SDS011;26460;42.732;-84.532;2024-01-30T00:10:13;2.63;;;2.25;;
40753;SDS011;26460;42.732;-84.532;2024-01-30T00:12:40;2.67;;;2.30;;
40753;SDS011;26460;42.732;-84.532;2024-01-30T00:15:06;3.05;;;2.17;;
40753;SDS011;26460;42.732;-84.532;2024-01-30T00:17:38;2.00;;;1.80;;
40753;SDS011;26460;42.732;-84.532;2024-01-30T00:20:05;3.78;;;2.45;;
40753;SDS011;26460;42.732;-84.532;2024-01-30T00:22:32;2.45;;;2.20;;
40753;SDS011;26460;42.732;-84.532;2024-01-30T00:24:59;3.33;;;2.40;;
40753;SDS011;26460;42.732;-84.532;2024-01-30T00:27:26;2.10;;;1.90;;
40753;SDS011;26460;42.732;-84.532;2024-01-30T00:29:53;2.85;;;2.55;;
40753;SDS011;26460;42.732;-84.532;2024-01-30T00:32:19;2.33;;;2.13;;
40753;SDS011;26460;42.732;-84.532;2024-01-30T00:34:46;2.42;;;2.20;;
40753;SDS011;26460;42.732;-84.532;2024-01-30T00:37:13;2.70;;;2.33;;
40753;SDS011;26460;42.732;-84.532;2024-01-30T00:39:39;3.55;;;3.20;;
40753;SDS011;26460;42.732;-84.532;2024-01-30T00:42:06;3.28;;;2.88;;
40753;SDS011;26460;42.732;-84.532;2024-01-30T00:44:34;4.53;;;2.92;;
40753;SDS011;26460;42.732;-84.532;2024-01-30T00:47:04;2.60;;;2.40;;
40753;SDS011;26460;42.732;-84.532;2024-01-30T00:49:31;3.08;;;2.72;;
40753;SDS011;26460;42.732;-84.532;2024-01-30T00:51:58;3.50;;;3.05;;
40753;SDS011;26460;42.732;-84.532;2024-01-30T00:54:24;4.82;;;3.35;;
40753;SDS011;26460;42.732;-84.532;2024-01-30T00:56:51;4.07;;;3.67;;
40753;SDS011;26460;42.732;-84.532;2024-01-30T00:59:17;3.70;;;3.30;;
40753;SDS011;26460;42.732;-84.532;2024-01-30T01:01:44;3.47;;;3.03;;
40753;SDS011;26460;42.732;-84.532;2024-01-30T01:04:11;3.45;;;3.15;;
40753;SDS011;26460;42.732;-84.532;2024-01-30T01:06:37;3.45;;;3.15;;
40753;SDS011;26460;42.732;-84.532;2024-01-30T01:09:04;5.13;;;3.80;;
40753;SDS011;26460;42.732;-84.532;2024-01-30T01:11:30;5.53;;;3.70;;
40753;SDS011;26460;42.732;-84.532;2024-01-30T01:13:57;3.65;;;3.25;;
40753;SDS011;26460;42.732;-84.532;2024-01-30T01:16:23;4.10;;;3.70;;
40753;SDS011;26460;42.732;-84.532;2024-01-30T01:18:50;4.60;;;3.70;;
40753;SDS011;26460;42.732;-84.532;2024-01-30T01:21:17;4.90;;;4.40;;
40753;SDS011;26460;42.732;-84.532;2024-01-30T01:23:43;4.20;;;3.78;;
40753;SDS011;26460;42.732;-84.532;2024-01-30T01:26:10;5.43;;;4.82;;
40753;SDS011;26460;42.732;-84.532;2024-01-30T01:28:36;5.90;;;4.70;;
40753;SDS011;26460;42.732;-84.532;2024-01-30T01:31:05;5.50;;;4.95;;
40753;SDS011;26460;42.732;-84.532;2024-01-30T01:33:32;5.63;;;4.85;;
40753;SDS011;26460;42.732;-84.532;2024-01-30T01:35:59;6.00;;;5.40;;
40753;SDS011;26460;42.732;-84.532;2024-01-30T01:38:28;6.22;;;5.63;;
40753;SDS011;26460;42.732;-84.532;2024-01-30T01:40:56;7.07;;;5.40;;
40753;SDS011;26460;42.732;-84.532;2024-01-30T01:43:22;7.00;;;6.03;;
40753;SDS011;26460;42.732;-84.532;2024-01-30T01:45:49;7.55;;;6.13;;
40753;SDS011;26460;42.732;-84.532;2024-01-30T01:48:16;6.30;;;5.70;;
40753;SDS011;26460;42.732;-84.532;2024-01-30T01:50:42;7.07;;;6.38;;
40753;SDS011;26460;42.732;-84.532;2024-01-30T01:53:09;7.47;;;6.50;;
40753;SDS011;26460;42.732;-84.532;2024-01-30T01:55:36;7.40;;;6.50;;
40753;SDS011;26460;42.732;-84.532;2024-01-30T01:58:03;7.13;;;6.43;;
40753;SDS011;26460;42.732;-84.532;2024-01-30T02:00:31;7.22;;;6.43;;
40753;SDS011;26460;42.732;-84.532;2024-01-30T02:02:58;8.30;;;6.88;;
40753;SDS011;26460;42.732;-84.532;2024-01-30T02:05:25;7.65;;;6.85;;
40753;SDS011;26460;42.732;-84.532;2024-01-30T02:07:52;8.32;;;6.88;;
40753;SDS011;26460;42.732;-84.532;2024-01-30T02:10:20;6.88;;;6.18;;
40753;SDS011;26460;42.732;-84.532;2024-01-30T02:12:46;9.15;;;7.20;;
40753;SDS011;26460;42.732;-84.532;2024-01-30T02:15:14;9.88;;;7.25;;
40753;SDS011;26460;42.732;-84.532;2024-01-30T02:17:40;13.55;;;9.32;;
40753;SDS011;26460;42.732;-84.532;2024-01-30T02:20:08;13.85;;;9.43;;
40753;SDS011;26460;42.732;-84.532;2024-01-30T02:22:35;18.17;;;11.68;;
40753;SDS011;26460;42.732;-84.532;2024-01-30T02:25:03;22.52;;;14.43;;
40753;SDS011;26460;42.732;-84.532;2024-01-30T02:27:30;25.60;;;14.73;;
40753;SDS011;26460;42.732;-84.532;2024-01-30T02:29:56;24.77;;;15.02;;
40753;SDS011;26460;42.732;-84.532;2024-01-30T02:32:23;26.75;;;17.17;;
40753;SDS011;26460;42.732;-84.532;2024-01-30T02:34:49;23.92;;;15.20;;
40753;SDS011;26460;42.732;-84.532;2024-01-30T02:37:16;29.42;;;16.27;;
40753;SDS011;26460;42.732;-84.532;2024-01-30T02:39:43;27.17;;;15.50;;
40753;SDS011;26460;42.732;-84.532;2024-01-30T02:42:09;22.85;;;13.75;;
40753;SDS011;26460;42.732;-84.532;2024-01-30T02:44:36;24.17;;;13.63;;
40753;SDS011;26460;42.732;-84.532;2024-01-30T02:47:02;21.05;;;12.48;;
40753;SDS011;26460;42.732;-84.532;2024-01-30T02:49:29;16.75;;;10.63;;
40753;SDS011;26460;42.732;-84.532;2024-01-30T02:51:56;19.13;;;11.48;;
40753;SDS011;26460;42.732;-84.532;2024-01-30T02:54:22;18.48;;;11.00;;
40753;SDS011;26460;42.732;-84.532;2024-01-30T02:56:49;14.70;;;10.23;;
40753;SDS011;26460;42.732;-84.532;2024-01-30T02:59:15;13.90;;;9.80;;
40753;SDS011;26460;42.732;-84.532;2024-01-30T03:01:42;14.73;;;10.07;;
40753;SDS011;26460;42.732;-84.532;2024-01-30T03:04:10;14.27;;;9.80;;
40753;SDS011;26460;42.732;-84.532;2024-01-30T03:06:37;12.75;;;9.10;;
40753;SDS011;26460;42.732;-84.532;2024-01-30T03:09:03;11.02;;;8.82;;
40753;SDS011;26460;42.732;-84.532;2024-01-30T03:11:30;12.07;;;7.97;;
40753;SDS011;26460;42.732;-84.532;2024-01-30T03:13:57;10.68;;;7.45;;
40753;SDS011;26460;42.732;-84.532;2024-01-30T03:16:24;10.15;;;7.35;;
40753;SDS011;26460;42.732;-84.532;2024-01-30T03:18:50;11.07;;;6.55;;
40753;SDS011;26460;42.732;-84.532;2024-01-30T03:21:17;9.70;;;6.95;;
40753;SDS011;26460;42.732;-84.532;2024-01-30T03:23:43;6.70;;;5.75;;
40753;SDS011;26460;42.732;-84.532;2024-01-30T03:26:10;8.80;;;6.70;;
40753;SDS011;26460;42.732;-84.532;2024-01-30T03:28:38;7.80;;;5.90;;
40753;SDS011;26460;42.732;-84.532;2024-01-30T03:31:04;8.73;;;6.25;;
40753;SDS011;26460;42.732;-84.532;2024-01-30T03:33:31;6.60;;;5.55;;
40753;SDS011;26460;42.732;-84.532;2024-01-30T03:35:57;8.73;;;5.85;;
40753;SDS011;26460;42.732;-84.532;2024-01-30T03:38:28;7.90;;;6.05;;
40753;SDS011;26460;42.732;-84.532;2024-01-30T03:40:54;5.78;;;4.85;;
40753;SDS011;26460;42.732;-84.532;2024-01-30T03:43:21;6.18;;;5.15;;
40753;SDS011;26460;42.732;-84.532;2024-01-30T03:45:47;6.30;;;4.93;;
40753;SDS011;26460;42.732;-84.532;2024-01-30T03:48:14;5.45;;;4.55;;
40753;SDS011;26460;42.732;-84.532;2024-01-30T03:50:40;4.90;;;4.15;;
40753;SDS011;26460;42.732;-84.532;2024-01-30T03:53:07;5.72;;;4.75;;
40753;SDS011;26460;42.732;-84.532;2024-01-30T03:55:33;4.80;;;4.18;;
40753;SDS011;26460;42.732;-84.532;2024-01-30T03:58:00;4.80;;;4.13;;
40753;SDS011;26460;42.732;-84.532;2024-01-30T04:00:27;5.25;;;4.22;;
40753;SDS011;26460;42.732;-84.532;2024-01-30T04:02:53;6.75;;;4.45;;
40753;SDS011;26460;42.732;-84.532;2024-01-30T04:05:20;4.72;;;4.00;;
40753;SDS011;26460;42.732;-84.532;2024-01-30T04:07:46;5.28;;;4.43;;
40753;SDS011;26460;42.732;-84.532;2024-01-30T04:10:13;6.28;;;4.18;;
40753;SDS011;26460;42.732;-84.532;2024-01-30T04:12:39;5.63;;;4.10;;
40753;SDS011;26460;42.732;-84.532;2024-01-30T04:15:06;5.53;;;4.32;;
40753;SDS011;26460;42.732;-84.532;2024-01-30T04:17:33;6.68;;;4.10;;
40753;SDS011;26460;42.732;-84.532;2024-01-30T04:20:00;5.20;;;4.25;;
40753;SDS011;26460;42.732;-84.532;2024-01-30T04:22:26;4.20;;;3.47;;
40753;SDS011;26460;42.732;-84.532;2024-01-30T04:24:53;5.50;;;4.20;;
40753;SDS011;26460;42.732;-84.532;2024-01-30T04:27:19;8.20;;;4.43;;
40753;SDS011;26460;42.732;-84.532;2024-01-30T04:29:46;5.25;;;4.22;;
40753;SDS011;26460;42.732;-84.532;2024-01-30T04:32:12;5.45;;;4.25;;
40753;SDS011;26460;42.732;-84.532;2024-01-30T04:34:39;7.95;;;4.70;;
40753;SDS011;26460;42.732;-84.532;2024-01-30T04:37:06;5.70;;;4.65;;
40753;SDS011;26460;42.732;-84.532;2024-01-30T04:39:33;7.45;;;4.70;;
40753;SDS011;26460;42.732;-84.532;2024-01-30T04:41:59;7.72;;;4.63;;
40753;SDS011;26460;42.732;-84.532;2024-01-30T04:44:26;6.00;;;4.32;;
40753;SDS011;26460;42.732;-84.532;2024-01-30T04:46:52;5.95;;;4.25;;
40753;SDS011;26460;42.732;-84.532;2024-01-30T04:49:19;5.45;;;4.10;;
40753;SDS011;26460;42.732;-84.532;2024-01-30T04:51:45;4.50;;;3.92;;
40753;SDS011;26460;42.732;-84.532;2024-01-30T04:54:12;4.97;;;4.10;;
40753;SDS011;26460;42.732;-84.532;2024-01-30T04:56:38;7.05;;;4.30;;
40753;SDS011;26460;42.732;-84.532;2024-01-30T04:59:05;4.97;;;3.83;;
40753;SDS011;26460;42.732;-84.532;2024-01-30T05:01:34;5.17;;;4.10;;
40753;SDS011;26460;42.732;-84.532;2024-01-30T05:04:00;4.53;;;3.95;;
40753;SDS011;26460;42.732;-84.532;2024-01-30T05:06:29;4.43;;;3.75;;
40753;SDS011;26460;42.732;-84.532;2024-01-30T05:08:55;5.75;;;4.55;;
40753;SDS011;26460;42.732;-84.532;2024-01-30T05:11:22;4.43;;;3.80;;
40753;SDS011;26460;42.732;-84.532;2024-01-30T05:13:48;4.30;;;3.75;;
40753;SDS011;26460;42.732;-84.532;2024-01-30T05:16:15;4.95;;;3.88;;
40753;SDS011;26460;42.732;-84.532;2024-01-30T05:18:41;4.43;;;3.78;;
40753;SDS011;26460;42.732;-84.532;2024-01-30T05:21:08;4.85;;;3.72;;
40753;SDS011;26460;42.732;-84.532;2024-01-30T05:23:36;4.07;;;3.60;;
40753;SDS011;26460;42.732;-84.532;2024-01-30T05:26:02;4.43;;;3.78;;
40753;SDS011;26460;42.732;-84.532;2024-01-30T05:28:29;4.25;;;3.53;;
40753;SDS011;26460;42.732;-84.532;2024-01-30T05:30:56;4.47;;;3.92;;
40753;SDS011;26460;42.732;-84.532;2024-01-30T05:33:22;4.85;;;4.18;;
40753;SDS011;26460;42.732;-84.532;2024-01-30T05:35:49;5.80;;;3.63;;
40753;SDS011;26460;42.732;-84.532;2024-01-30T05:38:16;5.75;;;3.70;;
40753;SDS011;26460;42.732;-84.532;2024-01-30T05:40:42;8.10;;;5.03;;
40753;SDS011;26460;42.732;-84.532;2024-01-30T05:43:09;11.32;;;6.07;;
40753;SDS011;26460;42.732;-84.532;2024-01-30T05:45:35;12.95;;;7.28;;
40753;SDS011;26460;42.732;-84.532;2024-01-30T05:48:02;14.25;;;7.65;;
40753;SDS011;26460;42.732;-84.532;2024-01-30T05:50:29;14.45;;;8.30;;
40753;SDS011;26460;42.732;-84.532;2024-01-30T05:52:56;25.63;;;12.63;;
40753;SDS011;26460;42.732;-84.532;2024-01-30T05:55:22;33.05;;;14.90;;
40753;SDS011;26460;42.732;-84.532;2024-01-30T05:57:49;44.08;;;20.27;;
40753;SDS011;26460;42.732;-84.532;2024-01-30T06:00:18;46.30;;;20.17;;
40753;SDS011;26460;42.732;-84.532;2024-01-30T06:02:44;43.95;;;20.13;;
40753;SDS011;26460;42.732;-84.532;2024-01-30T06:05:11;43.80;;;20.63;;
40753;SDS011;26460;42.732;-84.532;2024-01-30T06:07:38;39.83;;;19.20;;
40753;SDS011;26460;42.732;-84.532;2024-01-30T06:10:04;37.70;;;18.13;;
40753;SDS011;26460;42.732;-84.532;2024-01-30T06:12:32;39.30;;;18.63;;
40753;SDS011;26460;42.732;-84.532;2024-01-30T06:14:59;40.88;;;19.13;;
40753;SDS011;26460;42.732;-84.532;2024-01-30T06:17:25;41.70;;;19.75;;
40753;SDS011;26460;42.732;-84.532;2024-01-30T06:19:52;40.53;;;18.83;;
40753;SDS011;26460;42.732;-84.532;2024-01-30T06:22:18;50.75;;;21.42;;
40753;SDS011;26460;42.732;-84.532;2024-01-30T06:24:45;47.70;;;20.92;;
40753;SDS011;26460;42.732;-84.532;2024-01-30T06:27:14;49.23;;;21.33;;
40753;SDS011;26460;42.732;-84.532;2024-01-30T06:29:42;49.88;;;21.00;;
40753;SDS011;26460;42.732;-84.532;2024-01-30T06:32:09;38.75;;;17.75;;
40753;SDS011;26460;42.732;-84.532;2024-01-30T06:34:36;42.85;;;17.55;;
40753;SDS011;26460;42.732;-84.532;2024-01-30T06:37:04;39.40;;;17.17;;
40753;SDS011;26460;42.732;-84.532;2024-01-30T06:39:30;40.38;;;16.48;;
40753;SDS011;26460;42.732;-84.532;2024-01-30T06:41:57;33.63;;;15.82;;
40753;SDS011;26460;42.732;-84.532;2024-01-30T06:44:23;32.08;;;14.35;;
40753;SDS011;26460;42.732;-84.532;2024-01-30T06:46:50;29.77;;;13.85;;
40753;SDS011;26460;42.732;-84.532;2024-01-30T06:49:17;29.80;;;13.73;;
40753;SDS011;26460;42.732;-84.532;2024-01-30T06:51:43;29.08;;;13.30;;
40753;SDS011;26460;42.732;-84.532;2024-01-30T06:54:10;25.55;;;11.82;;
40753;SDS011;26460;42.732;-84.532;2024-01-30T06:56:36;23.73;;;11.65;;
40753;SDS011;26460;42.732;-84.532;2024-01-30T06:59:03;25.88;;;10.63;;
40753;SDS011;26460;42.732;-84.532;2024-01-30T07:01:29;17.65;;;9.82;;
40753;SDS011;26460;42.732;-84.532;2024-01-30T07:03:56;20.08;;;10.15;;
40753;SDS011;26460;42.732;-84.532;2024-01-30T07:06:23;18.98;;;9.55;;
40753;SDS011;26460;42.732;-84.532;2024-01-30T07:08:50;18.80;;;9.10;;
40753;SDS011;26460;42.732;-84.532;2024-01-30T07:11:20;16.73;;;8.05;;
40753;SDS011;26460;42.732;-84.532;2024-01-30T07:13:48;14.93;;;8.68;;
40753;SDS011;26460;42.732;-84.532;2024-01-30T07:16:16;15.02;;;8.15;;
40753;SDS011;26460;42.732;-84.532;2024-01-30T07:18:43;15.73;;;8.63;;
40753;SDS011;26460;42.732;-84.532;2024-01-30T07:21:09;14.23;;;7.22;;
40753;SDS011;26460;42.732;-84.532;2024-01-30T07:23:36;14.73;;;7.45;;
40753;SDS011;26460;42.732;-84.532;2024-01-30T07:26:05;13.27;;;6.80;;
40753;SDS011;26460;42.732;-84.532;2024-01-30T07:28:32;10.65;;;6.55;;
40753;SDS011;26460;42.732;-84.532;2024-01-30T07:30:59;11.65;;;6.20;;
40753;SDS011;26460;42.732;-84.532;2024-01-30T07:33:26;10.65;;;5.80;;
40753;SDS011;26460;42.732;-84.532;2024-01-30T07:35:52;10.93;;;6.10;;
40753;SDS011;26460;42.732;-84.532;2024-01-30T07:38:19;9.55;;;5.68;;
40753;SDS011;26460;42.732;-84.532;2024-01-30T07:40:46;8.98;;;5.35;;
40753;SDS011;26460;42.732;-84.532;2024-01-30T07:43:12;9.00;;;5.15;;
40753;SDS011;26460;42.732;-84.532;2024-01-30T07:45:39;9.77;;;5.88;;
40753;SDS011;26460;42.732;-84.532;2024-01-30T07:48:05;7.30;;;5.05;;
40753;SDS011;26460;42.732;-84.532;2024-01-30T07:50:32;10.38;;;5.47;;
40753;SDS011;26460;42.732;-84.532;2024-01-30T07:52:59;7.43;;;5.05;;
40753;SDS011;26460;42.732;-84.532;2024-01-30T07:55:26;11.00;;;5.47;;
40753;SDS011;26460;42.732;-84.532;2024-01-30T07:57:54;7.00;;;4.75;;
40753;SDS011;26460;42.732;-84.532;2024-01-30T08:00:21;8.45;;;5.07;;
40753;SDS011;26460;42.732;-84.532;2024-01-30T08:02:48;8.20;;;5.00;;
40753;SDS011;26460;42.732;-84.532;2024-01-30T08:05:14;8.27;;;4.72;;
40753;SDS011;26460;42.732;-84.532;2024-01-30T08:07:41;6.82;;;4.75;;
40753;SDS011;26460;42.732;-84.532;2024-01-30T08:10:08;6.95;;;4.78;;
40753;SDS011;26460;42.732;-84.532;2024-01-30T08:12:37;7.63;;;4.53;;
40753;SDS011;26460;42.732;-84.532;2024-01-30T08:15:04;7.65;;;4.40;;
40753;SDS011;26460;42.732;-84.532;2024-01-30T08:17:31;7.43;;;4.85;;
40753;SDS011;26460;42.732;-84.532;2024-01-30T08:19:57;5.72;;;4.05;;
40753;SDS011;26460;42.732;-84.532;2024-01-30T08:22:24;6.82;;;4.35;;
40753;SDS011;26460;42.732;-84.532;2024-01-30T08:24:51;6.00;;;3.78;;
40753;SDS011;26460;42.732;-84.532;2024-01-30T08:27:17;6.60;;;4.43;;
40753;SDS011;26460;42.732;-84.532;2024-01-30T08:29:44;6.47;;;4.55;;
40753;SDS011;26460;42.732;-84.532;2024-01-30T08:32:11;6.65;;;4.50;;
40753;SDS011;26460;42.732;-84.532;2024-01-30T08:34:37;6.45;;;4.45;;
40753;SDS011;26460;42.732;-84.532;2024-01-30T08:37:04;6.38;;;4.60;;
40753;SDS011;26460;42.732;-84.532;2024-01-30T08:39:30;5.75;;;4.32;;
40753;SDS011;26460;42.732;-84.532;2024-01-30T08:41:57;6.22;;;4.35;;
40753;SDS011;26460;42.732;-84.532;2024-01-30T08:44:23;6.72;;;4.43;;
40753;SDS011;26460;42.732;-84.532;2024-01-30T08:46:50;5.97;;;4.22;;
40753;SDS011;26460;42.732;-84.532;2024-01-30T08:49:16;6.85;;;4.68;;
40753;SDS011;26460;42.732;-84.532;2024-01-30T08:51:43;6.20;;;4.35;;
40753;SDS011;26460;42.732;-84.532;2024-01-30T08:54:09;6.85;;;4.75;;
40753;SDS011;26460;42.732;-84.532;2024-01-30T08:56:36;6.22;;;4.50;;
40753;SDS011;26460;42.732;-84.532;2024-01-30T08:59:02;6.45;;;4.50;;
40753;SDS011;26460;42.732;-84.532;2024-01-30T09:01:29;7.03;;;5.03;;
40753;SDS011;26460;42.732;-84.532;2024-01-30T09:03:56;5.88;;;4.47;;
40753;SDS011;26460;42.732;-84.532;2024-01-30T09:06:23;6.10;;;4.50;;
40753;SDS011;26460;42.732;-84.532;2024-01-30T09:08:52;6.93;;;4.50;;
40753;SDS011;26460;42.732;-84.532;2024-01-30T09:11:18;6.20;;;4.53;;
40753;SDS011;26460;42.732;-84.532;2024-01-30T09:13:45;8.18;;;4.88;;
40753;SDS011;26460;42.732;-84.532;2024-01-30T09:16:11;6.18;;;4.50;;
40753;SDS011;26460;42.732;-84.532;2024-01-30T09:18:38;7.03;;;4.30;;
40753;SDS011;26460;42.732;-84.532;2024-01-30T09:21:05;6.13;;;4.13;;
40753;SDS011;26460;42.732;-84.532;2024-01-30T09:23:31;6.78;;;4.30;;
40753;SDS011;26460;42.732;-84.532;2024-01-30T09:25:58;7.63;;;4.10;;
40753;SDS011;26460;42.732;-84.532;2024-01-30T09:28:24;6.38;;;4.65;;
40753;SDS011;26460;42.732;-84.532;2024-01-30T09:30:52;8.43;;;4.32;;
40753;SDS011;26460;42.732;-84.532;2024-01-30T09:33:18;9.32;;;4.70;;
40753;SDS011;26460;42.732;-84.532;2024-01-30T09:35:45;6.82;;;4.45;;
40753;SDS011;26460;42.732;-84.532;2024-01-30T09:38:12;9.05;;;5.03;;
40753;SDS011;26460;42.732;-84.532;2024-01-30T09:40:38;5.72;;;4.10;;
40753;SDS011;26460;42.732;-84.532;2024-01-30T09:43:05;6.22;;;4.63;;
40753;SDS011;26460;42.732;-84.532;2024-01-30T09:45:31;7.00;;;4.55;;
40753;SDS011;26460;42.732;-84.532;2024-01-30T09:47:59;5.18;;;4.25;;
40753;SDS011;26460;42.732;-84.532;2024-01-30T09:50:26;6.10;;;4.47;;
40753;SDS011;26460;42.732;-84.532;2024-01-30T09:52:53;5.55;;;4.22;;
40753;SDS011;26460;42.732;-84.532;2024-01-30T09:57:48;9.95;;;5.78;;
40753;SDS011;26460;42.732;-84.532;2024-01-30T10:00:15;15.05;;;7.68;;
40753;SDS011;26460;42.732;-84.532;2024-01-30T10:02:42;22.48;;;10.38;;
40753;SDS011;26460;42.732;-84.532;2024-01-30T10:05:08;22.20;;;11.77;;
40753;SDS011;26460;42.732;-84.532;2024-01-30T10:07:35;26.25;;;13.07;;
40753;SDS011;26460;42.732;-84.532;2024-01-30T10:10:02;28.73;;;12.65;;
40753;SDS011;26460;42.732;-84.532;2024-01-30T10:12:29;21.98;;;11.95;;
40753;SDS011;26460;42.732;-84.532;2024-01-30T10:14:56;22.85;;;12.25;;
40753;SDS011;26460;42.732;-84.532;2024-01-30T10:17:25;21.95;;;10.68;;
40753;SDS011;26460;42.732;-84.532;2024-01-30T10:19:52;18.98;;;9.63;;
40753;SDS011;26460;42.732;-84.532;2024-01-30T10:22:19;20.27;;;9.73;;
40753;SDS011;26460;42.732;-84.532;2024-01-30T10:24:46;16.35;;;9.00;;
40753;SDS011;26460;42.732;-84.532;2024-01-30T10:27:13;16.92;;;8.52;;
40753;SDS011;26460;42.732;-84.532;2024-01-30T10:29:40;15.93;;;7.80;;
40753;SDS011;26460;42.732;-84.532;2024-01-30T10:32:07;10.93;;;6.35;;
40753;SDS011;26460;42.732;-84.532;2024-01-30T10:34:34;12.27;;;6.93;;
40753;SDS011;26460;42.732;-84.532;2024-01-30T10:39:44;11.23;;;6.20;;
40753;SDS011;26460;42.732;-84.532;2024-01-30T10:42:15;13.75;;;7.40;;
40753;SDS011;26460;42.732;-84.532;2024-01-30T10:47:30;35.95;;;18.92;;
40753;SDS011;26460;42.732;-84.532;2024-01-30T10:49:56;49.00;;;23.92;;
40753;SDS011;26460;42.732;-84.532;2024-01-30T10:52:23;49.58;;;26.15;;
40753;SDS011;26460;42.732;-84.532;2024-01-30T10:54:51;61.88;;;30.45;;
40753;SDS011;26460;42.732;-84.532;2024-01-30T10:57:19;59.92;;;30.63;;
40753;SDS011;26460;42.732;-84.532;2024-01-30T10:59:53;58.65;;;28.70;;
40753;SDS011;26460;42.732;-84.532;2024-01-30T11:02:23;59.90;;;28.95;;
40753;SDS011;26460;42.732;-84.532;2024-01-30T11:04:57;58.92;;;27.38;;
40753;SDS011;26460;42.732;-84.532;2024-01-30T11:07:25;55.97;;;26.65;;
40753;SDS011;26460;42.732;-84.532;2024-01-30T11:09:53;47.83;;;24.70;;
40753;SDS011;26460;42.732;-84.532;2024-01-30T11:12:30;46.55;;;22.20;;
40753;SDS011;26460;42.732;-84.532;2024-01-30T11:15:05;36.08;;;20.27;;
40753;SDS011;26460;42.732;-84.532;2024-01-30T11:23:02;26.25;;;15.10;;
40753;SDS011;26460;42.732;-84.532;2024-01-30T11:25:31;25.35;;;14.43;;
40753;SDS011;26460;42.732;-84.532;2024-01-30T11:27:58;23.13;;;12.48;;
40753;SDS011;26460;42.732;-84.532;2024-01-30T11:30:26;20.02;;;12.00;;
40753;SDS011;26460;42.732;-84.532;2024-01-30T11:33:04;18.70;;;10.95;;
40753;SDS011;26460;42.732;-84.532;2024-01-30T11:35:37;17.55;;;10.02;;
40753;SDS011;26460;42.732;-84.532;2024-01-30T11:38:10;16.05;;;8.90;;
40753;SDS011;26460;42.732;-84.532;2024-01-30T11:40:39;16.40;;;8.18;;
40753;SDS011;26460;42.732;-84.532;2024-01-30T11:43:06;13.77;;;8.50;;
40753;SDS011;26460;42.732;-84.532;2024-01-30T11:45:34;14.77;;;7.82;;
40753;SDS011;26460;42.732;-84.532;2024-01-30T11:48:02;12.55;;;7.50;;
40753;SDS011;26460;42.732;-84.532;2024-01-30T11:50:30;11.27;;;7.22;;
40753;SDS011;26460;42.732;-84.532;2024-01-30T11:52:58;10.88;;;6.68;;
40753;SDS011;26460;42.732;-84.532;2024-01-30T11:55:25;10.02;;;6.85;;
40753;SDS011;26460;42.732;-84.532;2024-01-30T11:57:55;9.75;;;6.95;;
40753;SDS011;26460;42.732;-84.532;2024-01-30T12:00:24;10.10;;;6.60;;
40753;SDS011;26460;42.732;-84.532;2024-01-30T12:02:52;9.68;;;6.57;;
40753;SDS011;26460;42.732;-84.532;2024-01-30T12:05:23;9.35;;;6.20;;
40753;SDS011;26460;42.732;-84.532;2024-01-30T12:07:50;10.93;;;7.18;;
40753;SDS011;26460;42.732;-84.532;2024-01-30T12:10:17;10.23;;;6.22;;
40753;SDS011;26460;42.732;-84.532;2024-01-30T12:12:48;9.60;;;5.90;;
40753;SDS011;26460;42.732;-84.532;2024-01-30T12:15:16;6.63;;;5.07;;
40753;SDS011;26460;42.732;-84.532;2024-01-30T12:17:44;8.48;;;5.97;;
40753;SDS011;26460;42.732;-84.532;2024-01-30T12:22:39;7.40;;;5.18;;
40753;SDS011;26460;42.732;-84.532;2024-01-30T12:25:08;7.03;;;5.20;;
40753;SDS011;26460;42.732;-84.532;2024-01-30T12:27:39;8.30;;;5.85;;
40753;SDS011;26460;42.732;-84.532;2024-01-30T12:30:10;9.18;;;5.63;;
40753;SDS011;26460;42.732;-84.532;2024-01-30T12:32:41;7.72;;;5.40;;
40753;SDS011;26460;42.732;-84.532;2024-01-30T12:35:12;7.83;;;5.60;;
40753;SDS011;26460;42.732;-84.532;2024-01-30T12:37:40;6.97;;;4.78;;
40753;SDS011;26460;42.732;-84.532;2024-01-30T12:40:08;7.07;;;5.13;;
40753;SDS011;26460;42.732;-84.532;2024-01-30T12:42:35;6.78;;;5.00;;
40753;SDS011;26460;42.732;-84.532;2024-01-30T12:45:02;10.60;;;5.57;;
40753;SDS011;26460;42.732;-84.532;2024-01-30T12:47:32;7.85;;;5.10;;
40753;SDS011;26460;42.732;-84.532;2024-01-30T12:49:59;6.20;;;5.05;;
40753;SDS011;26460;42.732;-84.532;2024-01-30T12:52:26;6.47;;;4.70;;
40753;SDS011;26460;42.732;-84.532;2024-01-30T12:54:52;5.82;;;4.32;;
40753;SDS011;26460;42.732;-84.532;2024-01-30T12:57:20;8.27;;;5.05;;
40753;SDS011;26460;42.732;-84.532;2024-01-30T12:59:46;5.90;;;4.65;;
40753;SDS011;26460;42.732;-84.532;2024-01-30T13:02:13;5.53;;;4.20;;
40753;SDS011;26460;42.732;-84.532;2024-01-30T13:04:41;5.15;;;4.10;;
40753;SDS011;26460;42.732;-84.532;2024-01-30T13:07:08;8.05;;;5.00;;
40753;SDS011;26460;42.732;-84.532;2024-01-30T13:09:35;5.25;;;4.18;;
40753;SDS011;26460;42.732;-84.532;2024-01-30T13:12:02;5.78;;;3.97;;
40753;SDS011;26460;42.732;-84.532;2024-01-30T13:14:29;5.32;;;3.90;;
40753;SDS011;26460;42.732;-84.532;2024-01-30T13:16:55;5.45;;;3.75;;
40753;SDS011;26460;42.732;-84.532;2024-01-30T13:19:22;5.53;;;3.38;;
40753;SDS011;26460;42.732;-84.532;2024-01-30T13:21:48;5.55;;;4.05;;
40753;SDS011;26460;42.732;-84.532;2024-01-30T13:24:17;6.97;;;3.00;;
40753;SDS011;26460;42.732;-84.532;2024-01-30T13:26:47;5.05;;;3.25;;
40753;SDS011;26460;42.732;-84.532;2024-01-30T13:29:14;4.25;;;2.65;;
40753;SDS011;26460;42.732;-84.532;2024-01-30T13:31:41;4.38;;;3.25;;
40753;SDS011;26460;42.732;-84.532;2024-01-30T13:34:09;4.68;;;3.17;;
40753;SDS011;26460;42.732;-84.532;2024-01-30T13:36:36;4.85;;;3.08;;
40753;SDS011;26460;42.732;-84.532;2024-01-30T13:39:02;4.82;;;2.88;;
40753;SDS011;26460;42.732;-84.532;2024-01-30T15:00:27;3.53;;;2.15;;
40753;SDS011;26460;42.732;-84.532;2024-01-30T15:02:54;3.10;;;2.10;;
40753;SDS011;26460;42.732;-84.532;2024-01-30T15:05:20;3.28;;;2.45;;
40753;SDS011;26460;42.732;-84.532;2024-01-30T15:07:47;2.88;;;2.15;;
40753;SDS011;26460;42.732;-84.532;2024-01-30T15:10:14;5.70;;;2.63;;
40753;SDS011;26460;42.732;-84.532;2024-01-30T15:12:40;2.53;;;2.25;;
40753;SDS011;26460;42.732;-84.532;2024-01-30T15:15:07;3.42;;;2.30;;
40753;SDS011;26460;42.732;-84.532;2024-01-30T15:17:34;3.53;;;2.20;;
40753;SDS011;26460;42.732;-84.532;2024-01-30T15:20:01;2.63;;;2.13;;
40753;SDS011;26460;42.732;-84.532;2024-01-30T15:22:29;2.83;;;1.63;;
40753;SDS011;26460;42.732;-84.532;2024-01-30T16:10:29;9.63;;;4.72;;
40753;SDS011;26460;42.732;-84.532;2024-01-30T16:12:55;8.00;;;4.10;;
40753;SDS011;26460;42.732;-84.532;2024-01-30T16:15:22;9.15;;;3.85;;
40753;SDS011;26460;42.732;-84.532;2024-01-30T16:17:50;5.22;;;3.17;;
40753;SDS011;26460;42.732;-84.532;2024-01-30T16:20:17;6.82;;;3.17;;
40753;SDS011;26460;42.732;-84.532;2024-01-30T16:22:44;7.55;;;3.85;;
40753;SDS011;26460;42.732;-84.532;2024-01-30T16:25:11;7.90;;;3.80;;
40753;SDS011;26460;42.732;-84.532;2024-01-30T16:27:40;5.97;;;3.35;;
40753;SDS011;26460;42.732;-84.532;2024-01-30T16:30:06;6.18;;;3.47;;
40753;SDS011;26460;42.732;-84.532;2024-01-30T16:32:34;6.32;;;3.63;;